Aérodrome :
LOGIN :

S'inscrire | Disclaimer

   EN    FR    IT 

 










Légende :    VFR   VFR Marginal   IFR   IFR Intensif   IFR Très Intensif
Visi : 
Plafond : 
>= 8 km
>= 3000ft
5 à 8 km
1000 à 3000 ft
1500m à 5 km
500 à 1000 ft
800 à 1500m
200 à 500 ft
< 800m
< 200 ft
Symboles :   Orages  Brouillard  Fortes neiges  Fortes précipitations  Vent > 20 kt
SIGMETs :   Divers  Orages  Givrage  Turbulence  Onde Orograph.  Cendres Volcan.







- Altitude de l'aérodrome : 1 ft
- Voir les cartes d'approche


EGCK - Caernarfon

DERNIER METAR :
  • 100320Z AUTO 31016KT 9999 SCT017/// 09/06 Q1025

METARs EXPIRÉS :
  • 100250Z AUTO 30016KT 9999 BKN016/// 09/06 Q1025
  • 100220Z AUTO 29019KT 9999 SCT015/// SCT035/// 09/06 Q1025
  • 100150Z AUTO 30018KT 9999 SCT015/// BKN027/// BKN045/// 09/06 Q1024
  • 100120Z AUTO 29020KT 9999 SCT015/// BKN024/// OVC039/// 09/06 Q1025
  • 100050Z AUTO 29019KT 9999 SCT015/// OVC026/// 09/06 Q1024

TAF TAF EGCK
Valide du 10 à 03h jusqu'au 10 à 12h UTC


100203Z 1003/1012 30014KT 9999 SCT020
PROB30
TEMPO 1003/1006 31017G27KT
BECMG 1009/1012 24005KT
Pas de NOTAMs connus pour ce terrain.



MET'MAP, la Météo Aéronautique d'un coup d'oeil ! - Copyright ORBIFLY Décembre 2007 - Disclaimer

ORBIFLY MET'MAP TEAM :

Programmation & Développement : Alexandra Zaïnal
Conception & Développement : Baudouin d'Aumeries
Co-Programmation & Développement : Marc-Olivier Méhu
Soutien technique & logistique : Manuel Goepfert

Contact : metmap@orbifly.com




SOURCES & CREDITS :

   NOAA